createdAt,value
2023-02-03T00:01:03.067Z,4.91
2023-02-03T00:03:50.527Z,4.98
2023-02-03T00:06:38.097Z,4.98
2023-02-03T00:09:26.470Z,4.91
2023-02-03T00:12:15.431Z,4.93
2023-02-03T00:15:02.839Z,4.95
2023-02-03T00:17:50.489Z,4.95
2023-02-03T00:20:38.165Z,4.97
2023-02-03T00:23:26.188Z,4.94
2023-02-03T00:26:17.171Z,4.95
2023-02-03T00:29:06.254Z,4.95
2023-02-03T00:31:55.019Z,4.97
2023-02-03T00:34:43.127Z,4.97
2023-02-03T00:37:30.861Z,4.94
2023-02-03T00:40:18.384Z,4.99
2023-02-03T00:43:06.226Z,4.97
2023-02-03T00:45:55.029Z,4.99
2023-02-03T00:48:42.987Z,5.00
2023-02-03T00:51:30.571Z,5.04
2023-02-03T00:54:18.996Z,5.01
2023-02-03T00:57:06.437Z,4.98
2023-02-03T00:59:54.876Z,4.99
2023-02-03T01:02:43.918Z,5.00
2023-02-03T01:05:32.166Z,5.00
2023-02-03T01:08:19.708Z,5.03
2023-02-03T01:11:09.193Z,4.99
2023-02-03T01:13:59.375Z,4.99
2023-02-03T01:16:47.133Z,5.02
2023-02-03T01:19:36.270Z,5.03
2023-02-03T01:22:23.914Z,5.03
2023-02-03T01:25:11.386Z,5.01
2023-02-03T01:27:59.030Z,5.00
2023-02-03T01:30:46.862Z,5.04
2023-02-03T01:33:34.337Z,5.08
2023-02-03T01:36:28.865Z,5.05
2023-02-03T01:39:16.476Z,5.03
2023-02-03T01:42:04.091Z,5.06
2023-02-03T01:44:52.780Z,5.06
2023-02-03T01:47:49.539Z,5.06
2023-02-03T01:50:39.210Z,5.06
2023-02-03T01:53:28.092Z,5.04
2023-02-03T01:56:16.695Z,5.09
2023-02-03T01:59:04.455Z,5.07
2023-02-03T02:01:54.946Z,5.09
2023-02-03T02:04:56.913Z,5.07
2023-02-03T02:07:47.192Z,5.06
2023-02-03T02:10:36.718Z,5.06
2023-02-03T02:13:25.408Z,5.05
2023-02-03T02:16:20.931Z,5.10
2023-02-03T02:19:48.750Z,5.09
2023-02-03T02:23:03.034Z,5.08
2023-02-03T02:26:21.796Z,5.07
2023-02-03T02:29:41.748Z,5.08
2023-02-03T02:32:49.608Z,5.05
2023-02-03T02:35:59.882Z,5.06
2023-02-03T02:38:58.681Z,5.07
2023-02-03T02:41:53.718Z,5.03
2023-02-03T02:44:47.879Z,5.06
2023-02-03T02:47:36.770Z,5.05
2023-02-03T02:50:31.331Z,5.04
2023-02-03T02:53:25.030Z,5.08
2023-02-03T02:56:17.106Z,5.08
2023-02-03T02:59:08.098Z,5.08
2023-02-03T03:01:55.650Z,5.09
2023-02-03T03:04:48.985Z,5.08
2023-02-03T03:07:45.984Z,5.07
2023-02-03T03:10:36.455Z,5.09
2023-02-03T03:13:32.059Z,5.12
2023-02-03T03:16:25.091Z,5.11
2023-02-03T03:19:19.577Z,5.17
2023-02-03T03:22:14.443Z,5.14
2023-02-03T03:25:10.718Z,5.14
2023-02-03T03:28:04.454Z,5.12
2023-02-03T03:30:52.116Z,5.20
2023-02-03T03:33:40.545Z,5.20
2023-02-03T03:36:37.848Z,5.19
2023-02-03T03:39:38.129Z,5.21
2023-02-03T03:42:34.026Z,5.23
2023-02-03T03:45:29.701Z,5.25
2023-02-03T03:48:24.731Z,5.24
2023-02-03T03:51:20.554Z,5.22
2023-02-03T03:54:15.012Z,5.23
2023-02-03T03:57:15.461Z,5.25
2023-02-03T04:00:10.763Z,5.22
2023-02-03T04:03:06.546Z,5.22
2023-02-03T04:05:54.336Z,5.23
2023-02-03T04:08:42.134Z,5.23
2023-02-03T04:11:47.579Z,5.22
2023-02-03T04:14:39.110Z,5.26
2023-02-03T04:17:27.166Z,5.26
2023-02-03T04:20:16.499Z,5.25
2023-02-03T04:23:04.368Z,5.24
2023-02-03T04:25:51.992Z,5.26
2023-02-03T04:28:41.478Z,5.24
2023-02-03T04:31:33.698Z,5.26
2023-02-03T04:34:21.732Z,5.22
2023-02-03T04:37:10.073Z,5.25
2023-02-03T04:39:59.800Z,5.23
2023-02-03T04:42:49.788Z,5.22
2023-02-03T04:45:37.439Z,5.22
2023-02-03T04:48:26.568Z,5.22
2023-02-03T04:51:14.265Z,5.23
2023-02-03T04:54:02.070Z,5.25
2023-02-03T04:56:49.789Z,5.24
2023-02-03T04:59:37.548Z,5.22
2023-02-03T05:02:25.112Z,5.25
2023-02-03T05:05:14.215Z,5.24
2023-02-03T05:08:02.013Z,5.25
2023-02-03T05:10:49.635Z,5.24
2023-02-03T05:13:37.372Z,5.23
2023-02-03T05:16:24.947Z,5.29
2023-02-03T05:19:12.878Z,5.26
2023-02-03T05:22:01.945Z,5.25
2023-02-03T05:24:49.630Z,5.29
2023-02-03T05:27:39.716Z,5.27
2023-02-03T05:30:29.805Z,5.28
2023-02-03T05:33:18.021Z,5.28
2023-02-03T05:36:06.675Z,5.27
2023-02-03T05:38:55.642Z,5.29
2023-02-03T05:41:55.932Z,5.29
2023-02-03T05:44:44.936Z,5.33
2023-02-03T05:47:32.488Z,5.32
2023-02-03T05:50:20.497Z,5.29
2023-02-03T05:53:09.199Z,5.29
2023-02-03T05:55:57.868Z,5.29
2023-02-03T05:58:45.463Z,5.31
2023-02-03T06:01:33.487Z,5.29
2023-02-03T06:04:21.350Z,5.31
2023-02-03T06:07:09.075Z,5.28
2023-02-03T06:09:56.896Z,5.27
2023-02-03T06:12:48.776Z,5.28
2023-02-03T06:15:36.833Z,5.30
2023-02-03T06:18:25.318Z,5.30
2023-02-03T06:21:13.418Z,5.30
2023-02-03T06:24:01.109Z,5.32
2023-02-03T06:26:48.487Z,5.28
2023-02-03T06:29:37.580Z,5.29
2023-02-03T06:32:24.963Z,5.25
2023-02-03T06:35:12.389Z,5.28
2023-02-03T06:38:00.439Z,5.26
2023-02-03T06:40:49.091Z,5.25
2023-02-03T06:43:37.076Z,5.26
2023-02-03T06:46:28.320Z,5.33
2023-02-03T06:49:16.900Z,5.34
2023-02-03T06:52:04.601Z,5.30
2023-02-03T06:54:52.177Z,5.28
2023-02-03T06:57:45.581Z,5.30
2023-02-03T07:00:33.111Z,5.30
2023-02-03T07:03:22.375Z,5.31
2023-02-03T07:06:10.057Z,5.31
2023-02-03T07:08:59.954Z,5.36
2023-02-03T07:11:49.125Z,5.36
2023-02-03T07:14:39.301Z,5.33
2023-02-03T07:17:26.868Z,5.35
2023-02-03T07:20:16.136Z,5.32
2023-02-03T07:23:04.405Z,5.30
2023-02-03T07:25:52.083Z,5.32
2023-02-03T07:28:39.638Z,5.36
2023-02-03T07:31:27.316Z,5.38
2023-02-03T07:34:16.427Z,5.37
2023-02-03T07:37:05.137Z,5.41
2023-02-03T07:39:52.588Z,5.39
2023-02-03T07:42:43.262Z,5.42
2023-02-03T07:45:30.938Z,5.41
2023-02-03T07:48:18.719Z,5.41
2023-02-03T07:51:06.910Z,5.45
2023-02-03T07:53:57.276Z,5.47
2023-02-03T07:56:44.943Z,5.45
2023-02-03T07:59:32.388Z,5.43
2023-02-03T08:02:20.059Z,5.50
2023-02-03T08:05:08.751Z,5.53
2023-02-03T08:07:56.856Z,5.57
2023-02-03T08:10:45.968Z,5.59
2023-02-03T08:13:33.836Z,5.58
2023-02-03T08:16:21.285Z,5.57
2023-02-03T08:19:08.744Z,5.57
2023-02-03T08:21:56.745Z,5.60
2023-02-03T08:24:45.842Z,5.61
2023-02-03T08:27:35.004Z,5.65
2023-02-03T08:30:24.009Z,5.64
2023-02-03T08:33:13.680Z,5.65
2023-02-03T08:36:02.921Z,5.68
2023-02-03T08:38:51.224Z,5.70
2023-02-03T08:41:38.816Z,5.73
2023-02-03T08:44:28.907Z,5.69
2023-02-03T08:47:16.895Z,5.70
2023-02-03T08:50:05.351Z,5.72
2023-02-03T08:52:53.081Z,5.69
2023-02-03T08:55:41.384Z,5.69
2023-02-03T08:58:28.693Z,5.71
2023-02-03T09:01:17.648Z,5.70
2023-02-03T09:04:07.298Z,5.70
2023-02-03T09:06:55.658Z,5.69
2023-02-03T09:09:43.187Z,5.70
2023-02-03T09:12:31.287Z,5.69
2023-02-03T09:15:19.254Z,5.71
2023-02-03T09:18:07.893Z,5.71
2023-02-03T09:21:02.929Z,5.72
2023-02-03T09:23:50.468Z,5.72
2023-02-03T09:26:37.852Z,5.76
2023-02-03T09:29:26.376Z,5.78
2023-02-03T09:32:15.454Z,5.86
2023-02-03T09:35:05.688Z,5.82
2023-02-03T09:37:53.192Z,5.83
2023-02-03T09:40:41.758Z,5.86
2023-02-03T09:43:38.611Z,5.90
2023-02-03T09:46:31.124Z,5.91
2023-02-03T09:49:25.379Z,5.96
2023-02-03T09:52:20.291Z,6.02
2023-02-03T09:55:26.581Z,6.03
2023-02-03T09:58:18.316Z,6.04
2023-02-03T10:01:13.884Z,6.08
2023-02-03T10:04:12.923Z,6.11
2023-02-03T10:07:15.041Z,6.15
2023-02-03T10:10:15.595Z,6.19
2023-02-03T10:13:17.209Z,6.23
2023-02-03T10:16:34.930Z,6.26
2023-02-03T10:19:34.824Z,6.34
2023-02-03T10:22:29.335Z,6.38
2023-02-03T10:25:26.896Z,6.38
2023-02-03T10:28:20.707Z,6.41
2023-02-03T10:31:18.762Z,6.44
2023-02-03T10:34:13.448Z,6.48
2023-02-03T10:37:06.625Z,6.49
2023-02-03T10:39:56.837Z,6.55
2023-02-03T10:43:06.605Z,6.59
2023-02-03T10:45:54.852Z,6.63
2023-02-03T10:48:43.458Z,6.67
2023-02-03T10:51:35.938Z,6.65
2023-02-03T10:54:31.977Z,6.71
2023-02-03T10:57:19.688Z,6.79
2023-02-03T11:00:29.054Z,6.85
2023-02-03T11:03:26.314Z,6.90
2023-02-03T11:06:17.015Z,6.92
2023-02-03T11:09:29.909Z,6.93
2023-02-03T11:12:21.028Z,6.98
2023-02-03T11:15:15.878Z,7.01
2023-02-03T11:18:05.923Z,7.03
2023-02-03T11:20:54.365Z,7.06
2023-02-03T11:23:55.705Z,7.09
2023-02-03T11:26:47.454Z,7.09
2023-02-03T11:29:38.519Z,7.10
2023-02-03T11:32:37.406Z,7.13
2023-02-03T11:35:29.168Z,7.13
2023-02-03T11:38:31.510Z,7.10
2023-02-03T11:41:23.888Z,7.11
2023-02-03T11:44:17.508Z,7.12
2023-02-03T11:47:12.090Z,7.14
2023-02-03T11:50:30.749Z,7.13
2023-02-03T11:53:29.249Z,7.19
2023-02-03T11:56:36.544Z,7.15
2023-02-03T11:59:46.217Z,7.14
2023-02-03T12:03:30.858Z,7.16
2023-02-03T12:06:54.583Z,7.18
2023-02-03T12:09:58.014Z,7.19
2023-02-03T12:13:01.552Z,7.19
2023-02-03T12:16:15.007Z,7.17
2023-02-03T12:19:15.675Z,7.15
2023-02-03T12:22:15.167Z,7.12
2023-02-03T12:25:33.943Z,7.12
2023-02-03T12:28:46.934Z,7.14
2023-02-03T12:31:41.023Z,7.10
2023-02-03T12:34:35.319Z,7.10
2023-02-03T12:37:31.771Z,7.10
2023-02-03T12:40:30.240Z,7.08
2023-02-03T12:43:29.903Z,7.09
2023-02-03T12:46:23.357Z,7.06
2023-02-03T12:49:35.158Z,7.05
2023-02-03T12:52:31.781Z,6.99
2023-02-03T12:55:32.020Z,6.98
2023-02-03T12:58:27.568Z,6.94
2023-02-03T13:01:21.975Z,6.95
2023-02-03T13:04:16.565Z,6.91
2023-02-03T13:07:13.819Z,6.94
2023-02-03T13:10:13.661Z,6.90
2023-02-03T13:13:04.682Z,6.88
2023-02-03T13:15:56.542Z,6.89
2023-02-03T13:18:49.018Z,6.85
2023-02-03T13:21:37.430Z,6.85
2023-02-03T13:24:28.500Z,6.83
2023-02-03T13:27:46.535Z,6.84
2023-02-03T13:31:16.727Z,6.80
2023-02-03T13:34:30.949Z,6.80
2023-02-03T13:37:57.143Z,6.77
2023-02-03T13:41:00.965Z,6.70
2023-02-03T13:43:53.297Z,6.66
2023-02-03T13:46:41.703Z,6.60
2023-02-03T13:49:33.661Z,6.61
2023-02-03T13:52:29.715Z,6.59
2023-02-03T13:55:36.676Z,6.58
2023-02-03T13:58:28.813Z,6.56
2023-02-03T14:01:34.508Z,6.54
2023-02-03T14:04:55.067Z,6.53
2023-02-03T14:07:42.782Z,6.51
2023-02-03T14:10:32.305Z,6.51
2023-02-03T14:13:23.659Z,6.52
2023-02-03T14:16:26.248Z,6.52
2023-02-03T14:19:58.144Z,6.50
2023-02-03T14:22:45.620Z,6.51
2023-02-03T14:25:39.744Z,6.50
2023-02-03T14:28:40.079Z,6.47
2023-02-03T14:31:29.831Z,6.49
2023-02-03T14:34:19.911Z,6.50
2023-02-03T14:37:28.537Z,6.51
2023-02-03T14:40:33.238Z,6.49
2023-02-03T14:43:37.775Z,6.47
2023-02-03T14:46:59.844Z,6.47
2023-02-03T14:50:13.750Z,6.47
2023-02-03T14:53:32.060Z,6.47
2023-02-03T14:56:53.457Z,6.46
2023-02-03T14:59:48.291Z,6.43
2023-02-03T15:02:37.269Z,6.43
2023-02-03T15:05:41.030Z,6.42
2023-02-03T15:08:42.172Z,6.40
2023-02-03T15:11:34.677Z,6.41
2023-02-03T15:14:26.466Z,6.40
2023-02-03T15:17:24.497Z,6.39
2023-02-03T15:20:41.613Z,6.36
2023-02-03T15:23:39.164Z,6.38
2023-02-03T15:26:32.169Z,6.38
2023-02-03T15:29:27.696Z,6.37
2023-02-03T15:32:23.519Z,6.36
2023-02-03T15:35:17.799Z,6.36
2023-02-03T15:38:09.252Z,6.36
2023-02-03T15:40:59.569Z,6.34
2023-02-03T15:43:52.699Z,6.33
2023-02-03T15:46:42.233Z,6.34
2023-02-03T15:49:37.209Z,6.33
2023-02-03T15:52:30.490Z,6.32
2023-02-03T15:55:27.069Z,6.33
2023-02-03T15:58:20.372Z,6.32
2023-02-03T16:01:17.653Z,6.32
2023-02-03T16:04:14.573Z,6.33
2023-02-03T16:07:02.872Z,6.33
2023-02-03T16:09:54.613Z,6.33
2023-02-03T16:12:43.226Z,6.37
2023-02-03T16:15:33.268Z,6.37
2023-02-03T16:18:24.007Z,6.33
2023-02-03T16:21:32.846Z,6.36
2023-02-03T16:24:40.956Z,6.35
2023-02-03T16:27:35.696Z,6.34
2023-02-03T16:30:43.199Z,6.34
2023-02-03T16:33:51.237Z,6.34
2023-02-03T16:37:00.451Z,6.35
2023-02-03T16:40:05.880Z,6.34
2023-02-03T16:43:10.994Z,6.34
2023-02-03T16:46:18.250Z,6.32
2023-02-03T16:49:26.487Z,6.32
2023-02-03T16:52:16.644Z,6.34
2023-02-03T16:55:04.382Z,6.32
2023-02-03T16:57:52.445Z,6.33
2023-02-03T17:00:41.781Z,6.34
2023-02-03T17:03:32.712Z,6.34
2023-02-03T17:06:23.514Z,6.33
2023-02-03T17:09:11.586Z,6.34
2023-02-03T17:12:02.402Z,6.33
2023-02-03T17:14:49.894Z,6.33
2023-02-03T17:17:37.439Z,6.33
2023-02-03T17:20:24.944Z,6.32
2023-02-03T17:23:18.700Z,6.34
2023-02-03T17:26:06.946Z,6.33
2023-02-03T17:28:54.337Z,6.36
2023-02-03T17:31:42.294Z,6.36
2023-02-03T17:34:30.083Z,6.43
2023-02-03T17:37:17.452Z,6.40
2023-02-03T17:55:40.420Z,6.44
2023-02-03T17:58:28.203Z,6.44
2023-02-03T18:01:18.506Z,6.50
2023-02-03T18:04:08.828Z,6.47
2023-02-03T18:06:56.286Z,6.47
2023-02-03T18:09:43.861Z,6.49
2023-02-03T18:12:32.892Z,6.48
2023-02-03T18:15:20.453Z,6.51
2023-02-03T18:18:07.973Z,6.52
2023-02-03T18:20:58.370Z,6.50
2023-02-03T18:23:51.107Z,6.49
2023-02-03T18:26:49.826Z,6.52
2023-02-03T18:29:40.863Z,6.55
2023-02-03T18:32:28.343Z,6.51
2023-02-03T18:35:17.111Z,6.54
2023-02-03T18:38:04.705Z,6.54
2023-02-03T18:40:54.399Z,6.56
2023-02-03T18:43:42.296Z,6.59
2023-02-03T18:46:33.547Z,6.57
2023-02-03T18:49:21.608Z,6.58
2023-02-03T18:52:08.986Z,6.57
2023-02-03T18:54:56.623Z,6.57
2023-02-03T18:57:44.170Z,6.59
2023-02-03T19:00:32.041Z,6.58
2023-02-03T19:03:22.902Z,6.59
2023-02-03T19:06:11.781Z,6.61
2023-02-03T19:09:00.852Z,6.61
2023-02-03T19:11:48.387Z,6.62
2023-02-03T19:14:36.667Z,6.67
2023-02-03T19:17:24.375Z,6.65
2023-02-03T19:20:14.427Z,6.64
2023-02-03T19:23:04.479Z,6.67
2023-02-03T19:25:52.345Z,6.70
2023-02-03T19:28:40.673Z,6.72
2023-02-03T19:31:28.257Z,6.79
2023-02-03T19:34:17.127Z,6.80
2023-02-03T19:37:06.508Z,6.78
2023-02-03T19:39:54.263Z,6.80
2023-02-03T19:42:41.762Z,6.81
2023-02-03T19:45:29.482Z,6.82
2023-02-03T19:48:16.894Z,6.84
2023-02-03T19:51:04.384Z,6.85
2023-02-03T19:53:53.782Z,6.86
2023-02-03T19:56:41.987Z,6.86
2023-02-03T19:59:29.609Z,6.86
2023-02-03T20:02:17.395Z,6.88
2023-02-03T20:05:05.347Z,6.86
2023-02-03T20:08:14.610Z,6.88
2023-02-03T20:11:03.948Z,6.87
2023-02-03T20:13:51.911Z,6.87
2023-02-03T20:16:39.770Z,6.86
2023-02-03T20:19:27.756Z,6.86
2023-02-03T20:22:15.600Z,6.86
2023-02-03T20:25:07.083Z,6.86
2023-02-03T20:27:57.410Z,6.86
2023-02-03T20:30:45.157Z,6.84
2023-02-03T20:33:35.324Z,6.82
2023-02-03T20:36:22.859Z,6.81
2023-02-03T20:39:30.081Z,6.80
2023-02-03T20:42:19.291Z,6.76
2023-02-03T20:45:15.052Z,6.73
2023-02-03T20:48:27.689Z,6.72
2023-02-03T20:59:39.975Z,6.64
2023-02-03T21:03:19.236Z,6.64
2023-02-03T21:06:15.236Z,6.63
2023-02-03T21:09:14.566Z,6.61
2023-02-03T21:12:02.186Z,6.59
2023-02-03T21:14:50.099Z,6.59
2023-02-03T21:17:38.937Z,6.57
2023-02-03T21:20:30.364Z,6.54
2023-02-03T21:23:18.873Z,6.54
2023-02-03T21:26:21.458Z,6.51
2023-02-03T21:29:24.191Z,6.50
2023-02-03T21:32:15.363Z,6.46
2023-02-03T21:35:20.130Z,6.44
2023-02-03T21:38:30.829Z,6.44
2023-02-03T21:41:21.349Z,6.42
2023-02-03T21:44:28.875Z,6.40
2023-02-03T21:47:22.317Z,6.37
2023-02-03T21:50:31.837Z,6.34
2023-02-03T21:53:27.808Z,6.32
2023-02-03T21:56:19.780Z,6.31
2023-02-03T21:59:17.782Z,6.29
2023-02-03T22:02:45.307Z,6.28
2023-02-03T22:05:34.408Z,6.26
2023-02-03T22:08:24.296Z,6.24
2023-02-03T22:11:12.777Z,6.22
2023-02-03T22:14:00.816Z,6.22
2023-02-03T22:16:48.778Z,6.19
2023-02-03T22:19:37.595Z,6.17
2023-02-03T22:22:26.652Z,6.17
2023-02-03T22:25:14.537Z,6.14
2023-02-03T22:28:02.385Z,6.10
2023-02-03T22:30:50.155Z,6.09
2023-02-03T22:33:37.929Z,6.05
2023-02-03T22:36:25.912Z,6.04
2023-02-03T22:39:15.129Z,6.01
2023-02-03T22:42:02.928Z,6.00
2023-02-03T22:44:50.436Z,5.97
2023-02-03T22:47:37.989Z,5.94
2023-02-03T22:50:35.071Z,5.92
2023-02-03T22:53:23.552Z,5.90
2023-02-03T22:56:12.303Z,5.87
2023-02-03T22:58:59.710Z,5.86
2023-02-03T23:01:47.271Z,5.79
2023-02-03T23:04:34.807Z,5.78
2023-02-03T23:07:22.336Z,5.76
2023-02-03T23:10:13.627Z,5.75
2023-02-03T23:13:02.528Z,5.70
2023-02-03T23:15:50.446Z,5.67
2023-02-03T23:18:37.773Z,5.66
2023-02-03T23:21:25.690Z,5.63
2023-02-03T23:24:13.603Z,5.60
2023-02-03T23:27:02.219Z,5.56
2023-02-03T23:29:51.255Z,5.53
2023-02-03T23:32:38.971Z,5.50
2023-02-03T23:35:43.931Z,5.47
2023-02-03T23:38:33.309Z,5.42
2023-02-03T23:41:21.149Z,5.41
2023-02-03T23:44:09.338Z,5.38
2023-02-03T23:46:58.334Z,5.36
2023-02-03T23:49:46.214Z,5.34
2023-02-03T23:52:35.699Z,5.33
2023-02-03T23:55:23.541Z,5.32
2023-02-03T23:58:11.062Z,5.31
